createdAt,value
2016-10-26T00:00:42.263Z,1027.91
2016-10-26T00:01:42.930Z,1027.9
2016-10-26T00:02:43.589Z,1027.94
2016-10-26T00:03:44.261Z,1027.91
2016-10-26T00:04:44.940Z,1028
2016-10-26T00:05:45.622Z,1027.95
2016-10-26T00:06:46.294Z,1028.01
2016-10-26T00:07:46.978Z,1027.99
2016-10-26T00:08:47.639Z,1028.05
2016-10-26T00:09:48.298Z,1027.98
2016-10-26T00:10:48.969Z,1028
2016-10-26T00:11:49.633Z,1028.04
2016-10-26T00:12:50.378Z,1028.01
2016-10-26T00:13:51.049Z,1028.02
2016-10-26T00:14:51.719Z,1028
2016-10-26T00:15:52.394Z,1027.99
2016-10-26T00:16:53.049Z,1027.98
2016-10-26T00:17:53.725Z,1027.97
2016-10-26T00:18:54.403Z,1027.97
2016-10-26T00:19:55.074Z,1027.98
2016-10-26T00:20:55.756Z,1028
2016-10-26T00:21:56.424Z,1027.99
2016-10-26T00:22:57.090Z,1027.96
2016-10-26T00:23:57.736Z,1027.96
2016-10-26T00:24:58.406Z,1027.95
2016-10-26T00:25:59.080Z,1027.95
2016-10-26T00:26:59.741Z,1027.92
2016-10-26T00:28:00.405Z,1027.93
2016-10-26T00:29:01.070Z,1027.94
2016-10-26T00:30:01.742Z,1027.91
2016-10-26T00:31:02.434Z,1027.93
2016-10-26T00:32:03.091Z,1027.91
2016-10-26T00:33:03.759Z,1027.89
2016-10-26T00:34:04.420Z,1027.9
2016-10-26T00:35:05.083Z,1027.86
2016-10-26T00:36:05.739Z,1027.87
2016-10-26T00:37:06.448Z,1027.87
2016-10-26T00:38:07.122Z,1027.92
2016-10-26T00:39:07.796Z,1027.89
2016-10-26T00:40:08.468Z,1027.86
2016-10-26T00:41:09.141Z,1027.87
2016-10-26T00:42:09.812Z,1027.88
2016-10-26T00:43:10.485Z,1027.89
2016-10-26T00:44:11.170Z,1027.91
2016-10-26T00:45:11.831Z,1027.89
2016-10-26T00:46:12.511Z,1027.92
2016-10-26T00:47:13.178Z,1027.9
2016-10-26T00:48:13.871Z,1027.87
2016-10-26T00:49:14.524Z,1027.85
2016-10-26T00:50:15.187Z,1027.86
2016-10-26T00:51:15.860Z,1027.87
2016-10-26T00:52:16.536Z,1027.85
2016-10-26T00:53:17.214Z,1027.86
2016-10-26T00:54:17.882Z,1027.92
2016-10-26T00:55:18.550Z,1027.91
2016-10-26T00:56:19.233Z,1027.91
2016-10-26T00:57:19.899Z,1027.9
2016-10-26T00:58:20.585Z,1027.91
2016-10-26T00:59:21.243Z,1027.91
2016-10-26T01:00:21.917Z,1027.94
2016-10-26T01:01:22.590Z,1027.93
2016-10-26T01:02:23.271Z,1027.95
2016-10-26T01:03:23.932Z,1027.99
2016-10-26T01:04:24.620Z,1027.95
2016-10-26T01:05:25.286Z,1027.95
2016-10-26T01:06:25.954Z,1027.98
2016-10-26T01:07:26.628Z,1027.96
2016-10-26T01:08:27.299Z,1027.99
2016-10-26T01:09:27.959Z,1028.03
2016-10-26T01:10:28.620Z,1028.06
2016-10-26T01:11:29.308Z,1028.07
2016-10-26T01:12:29.961Z,1028.05
2016-10-26T01:13:30.610Z,1028.06
2016-10-26T01:14:31.271Z,1028.05
2016-10-26T01:15:31.941Z,1028.03
2016-10-26T01:16:32.615Z,1028.01
2016-10-26T01:17:33.275Z,1028.06
2016-10-26T01:18:33.963Z,1028.07
2016-10-26T01:19:34.652Z,1028.09
2016-10-26T01:20:35.315Z,1028.13
2016-10-26T01:21:35.986Z,1028.12
2016-10-26T01:22:36.646Z,1028.14
2016-10-26T01:23:37.316Z,1028.12
2016-10-26T01:24:37.987Z,1028.12
2016-10-26T01:25:38.669Z,1028.11
2016-10-26T01:26:39.345Z,1028.15
2016-10-26T01:27:40.012Z,1028.14
2016-10-26T01:28:40.681Z,1028.12
2016-10-26T01:29:41.342Z,1028.06
2016-10-26T01:30:42.017Z,1028.1
2016-10-26T01:31:42.699Z,1028.06
2016-10-26T01:32:43.378Z,1028.03
2016-10-26T01:33:44.044Z,1028.08
2016-10-26T01:34:44.711Z,1028.09
2016-10-26T01:35:45.386Z,1028.07
2016-10-26T01:36:46.069Z,1028.16
2016-10-26T01:37:46.735Z,1028.15
2016-10-26T01:38:47.456Z,1028.15
2016-10-26T01:39:55.186Z,1028.14
2016-10-26T01:40:55.975Z,1028.13
2016-10-26T01:41:56.807Z,1028.12
2016-10-26T01:42:57.630Z,1028.14
2016-10-26T01:43:58.348Z,1028.14
2016-10-26T01:44:59.014Z,1028.09
2016-10-26T01:45:59.676Z,1028.1
2016-10-26T01:47:00.340Z,1028.11
2016-10-26T01:48:01.034Z,1028.06
2016-10-26T01:49:01.763Z,1028.07
2016-10-26T01:50:02.472Z,1028.06
2016-10-26T01:51:03.161Z,1028.05
2016-10-26T01:52:03.928Z,1028.02
2016-10-26T01:53:04.683Z,1028.02
2016-10-26T01:54:05.442Z,1028.01
2016-10-26T01:55:06.172Z,1028.02
2016-10-26T01:56:06.868Z,1027.99
2016-10-26T01:57:07.633Z,1028
2016-10-26T01:58:08.318Z,1027.98
2016-10-26T01:59:08.986Z,1028.01
2016-10-26T02:00:09.799Z,1028.02
2016-10-26T02:01:10.478Z,1028.03
2016-10-26T02:02:11.152Z,1028.07
2016-10-26T02:03:11.832Z,1028.04
2016-10-26T02:04:12.530Z,1028.06
2016-10-26T02:05:13.216Z,1028.06
2016-10-26T02:06:13.885Z,1028.04
2016-10-26T02:07:14.551Z,1028.06
2016-10-26T02:08:15.248Z,1028.05
2016-10-26T02:09:15.922Z,1028.01
2016-10-26T02:10:16.579Z,1028.03
2016-10-26T02:11:17.247Z,1028.06
2016-10-26T02:12:17.911Z,1028.04
2016-10-26T02:13:18.577Z,1028.07
2016-10-26T02:14:19.258Z,1028.04
2016-10-26T02:15:19.916Z,1028.11
2016-10-26T02:16:20.608Z,1028.1
2016-10-26T02:17:21.265Z,1028.11
2016-10-26T02:18:21.950Z,1028.12
2016-10-26T02:19:22.617Z,1028.12
2016-10-26T02:20:23.302Z,1028.15
2016-10-26T02:21:23.968Z,1028.14
2016-10-26T02:22:24.625Z,1028.17
2016-10-26T02:23:25.304Z,1028.14
2016-10-26T02:24:25.959Z,1028.15
2016-10-26T02:25:26.631Z,1028.13
2016-10-26T02:26:27.296Z,1028.13
2016-10-26T02:27:27.966Z,1028.12
2016-10-26T02:28:28.622Z,1028.15
2016-10-26T02:29:29.291Z,1028.16
2016-10-26T02:30:29.953Z,1028.19
2016-10-26T02:31:30.611Z,1028.2
2016-10-26T02:32:31.278Z,1028.17
2016-10-26T02:33:31.947Z,1028.16
2016-10-26T02:34:32.605Z,1028.17
2016-10-26T02:35:33.262Z,1028.17
2016-10-26T02:36:33.940Z,1028.16
2016-10-26T02:37:34.619Z,1028.14
2016-10-26T02:38:35.280Z,1028.11
2016-10-26T02:39:35.939Z,1028.09
2016-10-26T02:40:36.599Z,1028.1
2016-10-26T02:41:37.293Z,1028.09
2016-10-26T02:42:37.971Z,1028.07
2016-10-26T02:43:38.643Z,1028.09
2016-10-26T02:44:39.305Z,1028.06
2016-10-26T02:45:39.968Z,1028.09
2016-10-26T02:46:40.638Z,1028.03
2016-10-26T02:47:41.306Z,1028.05
2016-10-26T02:48:41.991Z,1028.1
2016-10-26T02:49:42.708Z,1028.14
2016-10-26T02:50:43.359Z,1028.12
2016-10-26T02:51:44.010Z,1028.15
2016-10-26T02:52:44.677Z,1028.19
2016-10-26T02:53:45.341Z,1028.2
2016-10-26T02:54:46.019Z,1028.18
2016-10-26T02:55:46.673Z,1028.19
2016-10-26T02:56:47.346Z,1028.18
2016-10-26T02:57:48.004Z,1028.19
2016-10-26T02:58:48.661Z,1028.2
2016-10-26T02:59:49.331Z,1028.18
2016-10-26T03:00:50.016Z,1028.12
2016-10-26T03:01:50.686Z,1028.1
2016-10-26T03:02:51.349Z,1028.08
2016-10-26T03:03:52.017Z,1028.09
2016-10-26T03:04:52.705Z,1028.01
2016-10-26T03:05:53.365Z,1028.06
2016-10-26T03:06:54.047Z,1028
2016-10-26T03:07:54.708Z,1027.97
2016-10-26T03:08:55.386Z,1027.99
2016-10-26T03:09:56.069Z,1028.02
2016-10-26T03:10:56.736Z,1028.07
2016-10-26T03:11:57.401Z,1028.1
2016-10-26T03:12:58.079Z,1028.1
2016-10-26T03:13:58.754Z,1028.12
2016-10-26T03:14:59.414Z,1028.1
2016-10-26T03:16:00.095Z,1028.1
2016-10-26T03:17:00.763Z,1028.05
2016-10-26T03:18:01.439Z,1028.02
2016-10-26T03:19:02.123Z,1028.05
2016-10-26T03:20:02.783Z,1028.06
2016-10-26T03:21:03.454Z,1028.02
2016-10-26T03:22:04.139Z,1028.02
2016-10-26T03:23:04.801Z,1028.06
2016-10-26T03:24:05.476Z,1028.01
2016-10-26T03:25:06.142Z,1028.1
2016-10-26T03:26:06.817Z,1028.08
2016-10-26T03:27:07.490Z,1028.13
2016-10-26T03:28:08.168Z,1028.14
2016-10-26T03:29:08.845Z,1028.14
2016-10-26T03:30:09.501Z,1028.15
2016-10-26T03:31:10.176Z,1028.16
2016-10-26T03:32:10.866Z,1028.12
2016-10-26T03:33:11.540Z,1028.13
2016-10-26T03:34:12.202Z,1028.15
2016-10-26T03:35:12.856Z,1028.15
2016-10-26T03:36:13.532Z,1028.17
2016-10-26T03:37:14.205Z,1028.22
2016-10-26T03:38:14.892Z,1028.18
2016-10-26T03:39:15.554Z,1028.14
2016-10-26T03:40:16.223Z,1028.19
2016-10-26T03:41:16.890Z,1028.15
2016-10-26T03:42:17.571Z,1028.12
2016-10-26T03:43:18.236Z,1028.14
2016-10-26T03:44:18.902Z,1028.14
2016-10-26T03:45:19.577Z,1028.1
2016-10-26T03:46:20.259Z,1028.11
2016-10-26T03:47:20.927Z,1028.11
2016-10-26T03:48:21.593Z,1028.07
2016-10-26T03:49:22.271Z,1028.1
2016-10-26T03:50:22.943Z,1028.08
2016-10-26T03:51:23.637Z,1028.1
2016-10-26T03:52:24.295Z,1028.11
2016-10-26T03:53:24.986Z,1028.1
2016-10-26T03:54:25.638Z,1028.09
2016-10-26T03:55:26.303Z,1028.07
2016-10-26T03:56:26.962Z,1028.07
2016-10-26T03:57:27.640Z,1028.13
2016-10-26T03:58:28.316Z,1028.19
2016-10-26T03:59:28.979Z,1028.2
2016-10-26T04:00:29.670Z,1028.17
2016-10-26T04:01:30.336Z,1028.15
2016-10-26T04:02:31.003Z,1028.21
2016-10-26T04:03:31.673Z,1028.19
2016-10-26T04:04:32.347Z,1028.17
2016-10-26T04:05:33.020Z,1028.16
2016-10-26T04:06:33.695Z,1028.18
2016-10-26T04:07:34.381Z,1028.16
2016-10-26T04:08:35.070Z,1028.19
2016-10-26T04:09:35.757Z,1028.18
2016-10-26T04:10:36.431Z,1028.2
2016-10-26T04:11:37.133Z,1028.21
2016-10-26T04:12:37.787Z,1028.24
2016-10-26T04:13:38.449Z,1028.2
2016-10-26T04:14:39.120Z,1028.24
2016-10-26T04:15:39.790Z,1028.22
2016-10-26T04:16:40.462Z,1028.25
2016-10-26T04:17:41.138Z,1028.21
2016-10-26T04:18:41.819Z,1028.23
2016-10-26T04:19:42.484Z,1028.25
2016-10-26T04:20:43.151Z,1028.25
2016-10-26T04:21:43.820Z,1028.23
2016-10-26T04:22:44.496Z,1028.21
2016-10-26T04:23:45.170Z,1028.24
2016-10-26T04:24:45.843Z,1028.26
2016-10-26T04:25:46.513Z,1028.22
2016-10-26T04:26:47.186Z,1028.24
2016-10-26T04:27:47.853Z,1028.23
2016-10-26T04:28:48.538Z,1028.2
2016-10-26T04:29:49.208Z,1028.19
2016-10-26T04:30:49.873Z,1028.2
2016-10-26T04:31:50.547Z,1028.19
2016-10-26T04:32:51.222Z,1028.17
2016-10-26T04:33:51.887Z,1028.2
2016-10-26T04:34:52.570Z,1028.17
2016-10-26T04:35:53.238Z,1028.21
2016-10-26T04:36:53.914Z,1028.19
2016-10-26T04:37:54.564Z,1028.21
2016-10-26T04:38:55.226Z,1028.22
2016-10-26T04:39:55.886Z,1028.24
2016-10-26T04:40:56.566Z,1028.25
2016-10-26T04:41:57.229Z,1028.23
2016-10-26T04:42:57.891Z,1028.23
2016-10-26T04:43:58.560Z,1028.26
2016-10-26T04:44:59.237Z,1028.21
2016-10-26T04:45:59.912Z,1028.22
2016-10-26T04:47:00.585Z,1028.29
2016-10-26T04:48:01.256Z,1028.27
2016-10-26T04:49:01.932Z,1028.28
2016-10-26T04:50:02.610Z,1028.28
2016-10-26T04:51:03.274Z,1028.32
2016-10-26T04:52:03.950Z,1028.31
2016-10-26T04:53:04.628Z,1028.3
2016-10-26T04:54:05.285Z,1028.29
2016-10-26T04:55:05.961Z,1028.31
2016-10-26T04:56:06.610Z,1028.35
2016-10-26T04:57:07.289Z,1028.37
2016-10-26T04:58:07.964Z,1028.34
2016-10-26T04:59:08.636Z,1028.34
2016-10-26T05:00:09.315Z,1028.39
2016-10-26T05:01:09.984Z,1028.39
2016-10-26T05:02:10.649Z,1028.44
2016-10-26T05:03:11.312Z,1028.43
2016-10-26T05:04:12.004Z,1028.46
2016-10-26T05:05:12.697Z,1028.45
2016-10-26T05:06:13.351Z,1028.48
2016-10-26T05:07:14.036Z,1028.47
2016-10-26T05:08:14.696Z,1028.5
2016-10-26T05:09:15.387Z,1028.49
2016-10-26T05:10:16.049Z,1028.5
2016-10-26T05:11:16.726Z,1028.49
2016-10-26T05:12:17.411Z,1028.49
2016-10-26T05:13:18.076Z,1028.49
2016-10-26T05:14:18.745Z,1028.53
2016-10-26T05:15:19.418Z,1028.52
2016-10-26T05:16:20.081Z,1028.53
2016-10-26T05:17:20.763Z,1028.53
2016-10-26T05:18:21.445Z,1028.52
2016-10-26T05:19:22.110Z,1028.51
2016-10-26T05:20:22.786Z,1028.51
2016-10-26T05:21:23.640Z,1028.5
2016-10-26T05:22:24.370Z,1028.53
2016-10-26T05:23:25.105Z,1028.54
2016-10-26T05:24:25.871Z,1028.55
2016-10-26T05:25:26.594Z,1028.6
2016-10-26T05:26:27.372Z,1028.59
2016-10-26T05:27:28.069Z,1028.59
2016-10-26T05:28:28.728Z,1028.57
2016-10-26T05:29:29.400Z,1028.62
2016-10-26T05:30:30.085Z,1028.63
2016-10-26T05:31:30.819Z,1028.61
2016-10-26T05:32:31.471Z,1028.57
2016-10-26T05:33:32.160Z,1028.62
2016-10-26T05:34:32.845Z,1028.61
2016-10-26T05:35:33.519Z,1028.61
2016-10-26T05:36:34.180Z,1028.61
2016-10-26T05:37:34.847Z,1028.54
2016-10-26T05:38:35.510Z,1028.48
2016-10-26T05:39:36.187Z,1028.42
2016-10-26T05:40:36.864Z,1028.42
2016-10-26T05:41:37.532Z,1028.43
2016-10-26T05:42:38.198Z,1028.36
2016-10-26T05:43:38.870Z,1028.33
2016-10-26T05:44:39.559Z,1028.4
2016-10-26T05:45:40.218Z,1028.4
2016-10-26T05:46:40.884Z,1028.43
2016-10-26T05:47:41.558Z,1028.48
2016-10-26T05:48:42.233Z,1028.56
2016-10-26T05:49:42.907Z,1028.6
2016-10-26T05:50:43.596Z,1028.63
2016-10-26T05:51:44.302Z,1028.69
2016-10-26T05:52:44.973Z,1028.66
2016-10-26T05:53:45.634Z,1028.67
2016-10-26T05:54:46.314Z,1028.67
2016-10-26T05:55:46.976Z,1028.62
2016-10-26T05:56:47.648Z,1028.6
2016-10-26T05:57:48.329Z,1028.59
2016-10-26T05:58:49.000Z,1028.59
2016-10-26T05:59:49.667Z,1028.54
2016-10-26T06:00:50.346Z,1028.53
2016-10-26T06:01:51.035Z,1028.56
2016-10-26T06:02:51.692Z,1028.61
2016-10-26T06:03:52.348Z,1028.58
2016-10-26T06:04:53.036Z,1028.62
2016-10-26T06:05:53.706Z,1028.66
2016-10-26T06:06:54.363Z,1028.67
2016-10-26T06:07:55.031Z,1028.68
2016-10-26T06:08:55.714Z,1028.69
2016-10-26T06:09:56.382Z,1028.65
2016-10-26T06:10:57.048Z,1028.65
2016-10-26T06:11:57.732Z,1028.65
2016-10-26T06:12:58.397Z,1028.59
2016-10-26T06:13:59.069Z,1028.52
2016-10-26T06:14:59.739Z,1028.52
2016-10-26T06:16:00.423Z,1028.58
2016-10-26T06:17:01.090Z,1028.56
2016-10-26T06:18:01.759Z,1028.61
2016-10-26T06:19:02.439Z,1028.63
2016-10-26T06:20:03.111Z,1028.63
2016-10-26T06:21:03.785Z,1028.64
2016-10-26T06:22:04.457Z,1028.64
2016-10-26T06:23:05.129Z,1028.57
2016-10-26T06:24:05.790Z,1028.59
2016-10-26T06:25:06.467Z,1028.52
2016-10-26T06:26:07.132Z,1028.58
2016-10-26T06:27:07.803Z,1028.59
2016-10-26T06:28:08.489Z,1028.61
2016-10-26T06:29:09.156Z,1028.56
2016-10-26T06:30:09.832Z,1028.53
2016-10-26T06:31:10.500Z,1028.51
2016-10-26T06:32:11.174Z,1028.51
2016-10-26T06:33:11.845Z,1028.54
2016-10-26T06:34:12.520Z,1028.55
2016-10-26T06:35:13.190Z,1028.61
2016-10-26T06:36:13.857Z,1028.61
2016-10-26T06:37:14.529Z,1028.67
2016-10-26T06:38:15.202Z,1028.68
2016-10-26T06:39:15.879Z,1028.68
2016-10-26T06:40:16.540Z,1028.71
2016-10-26T06:41:17.220Z,1028.7
2016-10-26T06:42:17.896Z,1028.73
2016-10-26T06:43:18.563Z,1028.7
2016-10-26T06:44:19.236Z,1028.74
2016-10-26T06:45:19.906Z,1028.77
2016-10-26T06:46:20.580Z,1028.81
2016-10-26T06:47:21.243Z,1028.84
2016-10-26T06:48:21.930Z,1028.84
2016-10-26T06:49:22.604Z,1028.88
2016-10-26T06:50:23.268Z,1028.88
2016-10-26T06:51:23.926Z,1028.85
2016-10-26T06:52:24.612Z,1028.86
2016-10-26T06:53:25.281Z,1028.89
2016-10-26T06:54:25.955Z,1028.87
2016-10-26T06:55:26.629Z,1028.9
2016-10-26T06:56:27.331Z,1028.9
2016-10-26T06:57:27.987Z,1028.91
2016-10-26T06:58:28.660Z,1028.94
2016-10-26T06:59:29.322Z,1028.98
2016-10-26T07:00:29.987Z,1028.98
2016-10-26T07:01:30.687Z,1028.99
2016-10-26T07:02:31.384Z,1029.02
2016-10-26T07:03:32.060Z,1029.06
2016-10-26T07:04:32.769Z,1029.03
2016-10-26T07:05:33.463Z,1028.95
2016-10-26T07:06:34.166Z,1028.96
2016-10-26T07:07:34.880Z,1028.94
2016-10-26T07:08:35.586Z,1028.97
2016-10-26T07:09:36.291Z,1028.94
2016-10-26T07:10:36.971Z,1028.98
2016-10-26T07:11:37.643Z,1028.97
2016-10-26T07:12:38.313Z,1029
2016-10-26T07:13:38.990Z,1028.93
2016-10-26T07:14:39.699Z,1028.91
2016-10-26T07:15:40.381Z,1028.91
2016-10-26T07:16:41.050Z,1028.92
2016-10-26T07:17:41.721Z,1028.92
2016-10-26T07:18:42.452Z,1028.92
2016-10-26T07:19:43.127Z,1028.93
2016-10-26T07:20:43.850Z,1028.92
2016-10-26T07:21:44.525Z,1029
2016-10-26T07:22:45.191Z,1028.99
2016-10-26T07:23:45.865Z,1029.04
2016-10-26T07:24:46.535Z,1029.04
2016-10-26T07:25:47.203Z,1029.08
2016-10-26T07:26:47.867Z,1029.05
2016-10-26T07:27:48.557Z,1029
2016-10-26T07:28:49.248Z,1029.03
2016-10-26T07:29:49.919Z,1029.02
2016-10-26T07:30:50.610Z,1029.05
2016-10-26T07:31:51.294Z,1029.06
2016-10-26T07:32:51.957Z,1029.09
2016-10-26T07:33:52.630Z,1029.05
2016-10-26T07:34:53.287Z,1029.09
2016-10-26T07:35:53.947Z,1029.08
2016-10-26T07:36:54.625Z,1029.07
2016-10-26T07:37:55.314Z,1029.08
2016-10-26T07:38:55.967Z,1029.03
2016-10-26T07:39:56.636Z,1029.05
2016-10-26T07:40:57.298Z,1029.08
2016-10-26T07:41:57.976Z,1029.06
2016-10-26T07:42:58.657Z,1029.07
2016-10-26T07:43:59.325Z,1029.15
2016-10-26T07:44:59.988Z,1029.19
2016-10-26T07:46:00.674Z,1029.18
2016-10-26T07:47:01.348Z,1029.19
2016-10-26T07:48:02.029Z,1029.25
2016-10-26T07:49:02.683Z,1029.22
2016-10-26T07:50:03.341Z,1029.2
2016-10-26T07:51:04.005Z,1029.2
2016-10-26T07:52:04.666Z,1029.19
2016-10-26T07:53:05.331Z,1029.18
2016-10-26T07:54:05.995Z,1029.24
2016-10-26T07:55:06.673Z,1029.25
2016-10-26T07:56:07.350Z,1029.23
2016-10-26T07:57:08.037Z,1029.25
2016-10-26T07:58:08.709Z,1029.23
2016-10-26T07:59:09.374Z,1029.25
2016-10-26T08:00:10.048Z,1029.24
2016-10-26T08:01:10.716Z,1029.22
2016-10-26T08:02:11.451Z,1029.22
2016-10-26T08:03:12.316Z,1029.26
2016-10-26T08:04:12.976Z,1029.26
2016-10-26T08:05:13.656Z,1029.23
2016-10-26T08:06:14.729Z,1029.25
2016-10-26T08:07:15.483Z,1029.23
2016-10-26T08:08:16.145Z,1029.24
2016-10-26T08:09:16.806Z,1029.29
2016-10-26T08:10:17.493Z,1029.28
2016-10-26T08:11:18.299Z,1029.29
2016-10-26T08:12:19.087Z,1029.29
2016-10-26T08:13:19.763Z,1029.24
2016-10-26T08:14:20.424Z,1029.23
2016-10-26T08:15:21.095Z,1029.16
2016-10-26T08:16:21.787Z,1029.14
2016-10-26T08:17:22.475Z,1029.17
2016-10-26T08:18:23.238Z,1029.16
2016-10-26T08:19:23.955Z,1029.17
2016-10-26T08:20:24.705Z,1029.18
2016-10-26T08:21:25.417Z,1029.16
2016-10-26T08:22:26.095Z,1029.16
2016-10-26T08:23:26.777Z,1029.12
2016-10-26T08:24:27.450Z,1029.16
2016-10-26T08:25:28.172Z,1029.12
2016-10-26T08:26:28.922Z,1029.13
2016-10-26T08:27:29.682Z,1029.14
2016-10-26T08:28:30.481Z,1029.14
2016-10-26T08:29:31.246Z,1029.11
2016-10-26T08:30:31.919Z,1029.11
2016-10-26T08:31:32.593Z,1029.12
2016-10-26T08:32:33.280Z,1029.16
2016-10-26T08:33:33.948Z,1029.15
2016-10-26T08:34:34.680Z,1029.14
2016-10-26T08:35:35.376Z,1029.21
2016-10-26T08:36:36.057Z,1029.2
2016-10-26T08:37:36.728Z,1029.24
2016-10-26T08:38:37.419Z,1029.27
2016-10-26T08:39:38.097Z,1029.27
2016-10-26T08:40:38.761Z,1029.25
2016-10-26T08:41:39.429Z,1029.3
2016-10-26T08:42:40.180Z,1029.28
2016-10-26T08:43:40.831Z,1029.27
2016-10-26T08:44:41.494Z,1029.29
2016-10-26T08:45:42.171Z,1029.25
2016-10-26T08:46:42.847Z,1029.31
2016-10-26T08:47:43.521Z,1029.35
2016-10-26T08:48:44.192Z,1029.34
2016-10-26T08:49:45.026Z,1029.31
2016-10-26T08:50:45.714Z,1029.34
2016-10-26T08:51:46.393Z,1029.38
2016-10-26T08:52:47.186Z,1029.36
2016-10-26T08:53:47.832Z,1029.38
2016-10-26T08:54:48.893Z,1029.43
2016-10-26T08:55:49.602Z,1029.38
2016-10-26T08:56:50.290Z,1029.44
2016-10-26T08:57:50.961Z,1029.46
2016-10-26T08:58:51.831Z,1029.44
2016-10-26T08:59:52.571Z,1029.42
2016-10-26T09:00:53.352Z,1029.4
2016-10-26T09:01:54.150Z,1029.39
2016-10-26T09:02:54.841Z,1029.36
2016-10-26T09:03:55.572Z,1029.33
2016-10-26T09:04:56.288Z,1029.37
2016-10-26T09:05:56.987Z,1029.37
2016-10-26T09:06:57.711Z,1029.34
2016-10-26T09:07:58.387Z,1029.32
2016-10-26T09:08:59.101Z,1029.33
2016-10-26T09:09:59.817Z,1029.31
2016-10-26T09:11:00.558Z,1029.3
2016-10-26T09:12:01.218Z,1029.33
2016-10-26T09:13:01.950Z,1029.36
2016-10-26T09:14:02.910Z,1029.32
2016-10-26T09:15:03.351Z,1029.37
2016-10-26T09:16:04.063Z,1029.33
2016-10-26T09:17:04.726Z,1029.33
2016-10-26T09:18:05.405Z,1029.32
2016-10-26T09:19:06.079Z,1029.31
2016-10-26T09:20:06.770Z,1029.32
2016-10-26T09:21:07.434Z,1029.34
2016-10-26T09:22:08.139Z,1029.4
2016-10-26T09:23:08.807Z,1029.37
2016-10-26T09:24:09.489Z,1029.34
2016-10-26T09:25:10.180Z,1029.36
2016-10-26T09:26:10.850Z,1029.34
2016-10-26T09:27:11.550Z,1029.28
2016-10-26T09:28:12.276Z,1029.34
2016-10-26T09:29:12.976Z,1029.33
2016-10-26T09:30:13.688Z,1029.36
2016-10-26T09:31:14.373Z,1029.33
2016-10-26T09:32:15.065Z,1029.38
2016-10-26T09:33:15.758Z,1029.37
2016-10-26T09:34:16.435Z,1029.34
2016-10-26T09:35:17.100Z,1029.31
2016-10-26T09:36:17.772Z,1029.28
2016-10-26T09:37:18.446Z,1029.31
2016-10-26T09:38:19.112Z,1029.27
2016-10-26T09:39:19.774Z,1029.25
2016-10-26T09:40:20.437Z,1029.21
2016-10-26T09:41:21.137Z,1029.26
2016-10-26T09:42:21.801Z,1029.19
2016-10-26T09:43:22.466Z,1029.26
2016-10-26T09:44:23.148Z,1029.25
2016-10-26T09:45:24.760Z,1029.26
2016-10-26T09:46:28.286Z,1029.22
2016-10-26T09:47:29.252Z,1029.26
2016-10-26T09:48:29.943Z,1029.22
2016-10-26T09:49:30.668Z,1029.27
2016-10-26T09:50:31.478Z,1029.27
2016-10-26T09:51:32.158Z,1029.32
2016-10-26T09:52:32.836Z,1029.34
2016-10-26T09:53:33.519Z,1029.33
2016-10-26T09:54:34.220Z,1029.28
2016-10-26T09:55:34.861Z,1029.28
2016-10-26T09:56:35.556Z,1029.2
2016-10-26T09:57:36.221Z,1029.2
2016-10-26T09:58:36.906Z,1029.22
2016-10-26T09:59:37.576Z,1029.21
2016-10-26T10:00:38.262Z,1029.23
2016-10-26T10:01:38.946Z,1029.32
2016-10-26T10:02:39.649Z,1029.3
2016-10-26T10:03:40.309Z,1029.24
2016-10-26T10:04:40.988Z,1029.22
2016-10-26T10:05:41.666Z,1029.18
2016-10-26T10:06:42.348Z,1029.21
2016-10-26T10:07:43.025Z,1029.22
2016-10-26T10:08:43.700Z,1029.22
2016-10-26T10:09:44.368Z,1029.26
2016-10-26T10:10:45.030Z,1029.29
2016-10-26T10:11:45.717Z,1029.27
2016-10-26T10:12:46.392Z,1029.28
2016-10-26T10:13:47.067Z,1029.28
2016-10-26T10:14:47.732Z,1029.25
2016-10-26T10:15:48.398Z,1029.29
2016-10-26T10:16:49.098Z,1029.24
2016-10-26T10:17:49.781Z,1029.21
2016-10-26T10:18:50.463Z,1029.23
2016-10-26T10:19:51.150Z,1029.27
2016-10-26T10:20:51.823Z,1029.25
2016-10-26T10:21:52.502Z,1029.34
2016-10-26T10:22:53.194Z,1029.33
2016-10-26T10:23:53.849Z,1029.3
2016-10-26T10:24:54.540Z,1029.27
2016-10-26T10:25:55.203Z,1029.24
2016-10-26T10:26:55.869Z,1029.17
2016-10-26T10:27:56.536Z,1029.14
2016-10-26T10:28:57.213Z,1029.14
2016-10-26T10:29:57.887Z,1029.13
2016-10-26T10:30:58.571Z,1029.1
2016-10-26T10:31:59.243Z,1029.11
2016-10-26T10:32:59.915Z,1029.13
2016-10-26T10:34:00.632Z,1029.13
2016-10-26T10:35:01.301Z,1029.15
2016-10-26T10:36:01.971Z,1029.14
2016-10-26T10:37:02.652Z,1029.13
2016-10-26T10:38:03.313Z,1029.14
2016-10-26T10:39:03.984Z,1029.05
2016-10-26T10:40:04.657Z,1029.05
2016-10-26T10:41:05.327Z,1029.08
2016-10-26T10:42:06.080Z,1029.09
2016-10-26T10:43:06.760Z,1029.1
2016-10-26T10:44:07.449Z,1029.13
2016-10-26T10:45:08.113Z,1029.12
2016-10-26T10:46:08.788Z,1029.19
2016-10-26T10:47:09.483Z,1029.22
2016-10-26T10:48:10.152Z,1029.3
2016-10-26T10:49:10.806Z,1029.29
2016-10-26T10:50:11.479Z,1029.36
2016-10-26T10:51:12.147Z,1029.33
2016-10-26T10:52:12.824Z,1029.27
2016-10-26T10:53:13.500Z,1029.33
2016-10-26T10:54:14.176Z,1029.34
2016-10-26T10:55:14.856Z,1029.33
2016-10-26T10:56:15.530Z,1029.38
2016-10-26T10:57:16.288Z,1029.38
2016-10-26T10:58:16.868Z,1029.37
2016-10-26T10:59:17.546Z,1029.38
2016-10-26T11:00:18.226Z,1029.36
2016-10-26T11:01:18.892Z,1029.38
2016-10-26T11:02:19.561Z,1029.33
2016-10-26T11:03:20.235Z,1029.35
2016-10-26T11:04:20.915Z,1029.32
2016-10-26T11:05:21.613Z,1029.34
2016-10-26T11:06:22.360Z,1029.33
2016-10-26T11:07:23.073Z,1029.25
2016-10-26T11:08:23.765Z,1029.24
2016-10-26T11:09:24.448Z,1029.21
2016-10-26T11:10:25.180Z,1029.19
2016-10-26T11:11:25.849Z,1029.2
2016-10-26T11:12:26.557Z,1029.16
2016-10-26T11:13:27.262Z,1029.14
2016-10-26T11:14:27.967Z,1029.14
2016-10-26T11:15:28.638Z,1029.1
2016-10-26T11:16:29.337Z,1029.11
2016-10-26T11:17:29.981Z,1029.04
2016-10-26T11:18:30.638Z,1029.03
2016-10-26T11:19:31.339Z,1029.08
2016-10-26T11:20:32.007Z,1029.05
2016-10-26T11:21:32.679Z,1029.06
2016-10-26T11:22:33.356Z,1029.04
2016-10-26T11:23:34.022Z,1029
2016-10-26T11:24:34.704Z,1028.94
2016-10-26T11:25:35.533Z,1028.94
2016-10-26T11:26:36.203Z,1028.98
2016-10-26T11:27:36.922Z,1028.97
2016-10-26T11:28:37.593Z,1029.01
2016-10-26T11:29:38.257Z,1029
2016-10-26T11:30:38.927Z,1028.99
2016-10-26T11:31:39.600Z,1028.99
2016-10-26T11:32:40.262Z,1028.99
2016-10-26T11:33:40.925Z,1028.96
2016-10-26T11:34:41.587Z,1028.94
2016-10-26T11:35:42.291Z,1028.92
2016-10-26T11:36:42.978Z,1028.92
2016-10-26T11:37:43.650Z,1028.89
2016-10-26T11:38:44.322Z,1028.88
2016-10-26T11:39:44.987Z,1028.88
2016-10-26T11:40:45.678Z,1028.87
2016-10-26T11:41:46.361Z,1028.87
2016-10-26T11:42:47.035Z,1028.85
2016-10-26T11:43:47.723Z,1028.85
2016-10-26T11:44:48.387Z,1028.84
2016-10-26T11:45:49.050Z,1028.84
2016-10-26T11:46:49.722Z,1028.84
2016-10-26T11:47:50.393Z,1028.79
2016-10-26T11:48:51.070Z,1028.8
2016-10-26T11:49:51.747Z,1028.77
2016-10-26T11:50:52.433Z,1028.82
2016-10-26T11:51:53.100Z,1028.82
2016-10-26T11:52:53.756Z,1028.81
2016-10-26T11:53:54.435Z,1028.84
2016-10-26T11:54:55.099Z,1028.81
2016-10-26T11:55:55.770Z,1028.77
2016-10-26T11:56:56.452Z,1028.77
2016-10-26T11:57:57.125Z,1028.78
2016-10-26T11:58:57.808Z,1028.78
2016-10-26T11:59:58.468Z,1028.78
2016-10-26T12:00:59.137Z,1028.78
2016-10-26T12:01:59.810Z,1028.79
2016-10-26T12:03:00.482Z,1028.81
2016-10-26T12:04:01.155Z,1028.78
2016-10-26T12:05:01.831Z,1028.81
2016-10-26T12:06:02.498Z,1028.82
2016-10-26T12:07:03.170Z,1028.83
2016-10-26T12:08:03.827Z,1028.85
2016-10-26T12:09:04.503Z,1028.84
2016-10-26T12:10:05.176Z,1028.86
2016-10-26T12:11:05.843Z,1028.87
2016-10-26T12:12:06.529Z,1028.9
2016-10-26T12:13:07.226Z,1028.85
2016-10-26T12:14:07.929Z,1028.83
2016-10-26T12:15:08.602Z,1028.79
2016-10-26T12:16:09.278Z,1028.79
2016-10-26T12:17:09.949Z,1028.81